Time;durP1;ratioP1;P1;durP2;ratioP2;P2;SDS_P1;SDS_P2;PMS_P1;PMS_P2;Temp;Humidity;BMP_temperature;BMP_pressure;BME280_temperature;BME280_humidity;BME280_pressure;Samples;Min_cycle;Max_cycle;Signal;HPM_P1;HPM_P2
2023/07/13 00:02:14;;;;;;;3.17;1.30;;;;;;;33.27;25.65;100872.09;5009246;28;20049;-81
2023/07/13 00:04:43;;;;;;;5.32;1.20;;;;;;;33.16;26.01;100867.41;4994634;28;20038;-76
2023/07/13 00:07:14;;;;;;;2.90;1.20;;;;;;;32.99;26.35;100865.78;5006618;28;20057;-74
2023/07/13 00:09:42;;;;;;;1.50;1.20;;;;;;;32.85;26.28;100871.09;5011638;28;20112;-76
2023/07/13 00:12:25;;;;;;;1.55;1.10;;;;;;;32.65;26.57;100859.81;4998264;28;20443;-79
2023/07/13 00:14:54;;;;;;;2.30;1.45;;;;;;;32.45;26.96;100861.00;4996028;28;20557;-74
2023/07/13 00:17:23;;;;;;;2.60;1.33;;;;;;;32.20;27.22;100863.44;5001363;28;20064;-73
2023/07/13 00:19:51;;;;;;;1.42;1.08;;;;;;;31.86;28.33;100868.06;4999823;28;20052;-72
2023/07/13 00:22:21;;;;;;;1.98;1.20;;;;;;;31.75;30.01;100874.03;5005391;28;20141;-77
2023/07/13 00:24:51;;;;;;;1.80;1.13;;;;;;;31.68;30.22;100868.19;5007706;28;20053;-74
2023/07/13 00:27:20;;;;;;;2.08;1.00;;;;;;;31.62;30.47;100873.00;4994906;28;20086;-74
2023/07/13 00:29:49;;;;;;;3.42;1.33;;;;;;;31.46;30.99;100860.50;4997764;28;20050;-74
2023/07/13 00:32:17;;;;;;;5.32;1.58;;;;;;;31.37;31.25;100862.81;4998371;28;20078;-74
2023/07/13 00:34:46;;;;;;;3.88;1.70;;;;;;;31.29;32.18;100865.88;5018440;28;20049;-74
2023/07/13 00:37:15;;;;;;;5.38;1.55;;;;;;;31.29;31.75;100872.13;5004361;28;20060;-75
2023/07/13 00:39:46;;;;;;;2.60;1.40;;;;;;;31.30;31.75;100864.94;5010242;28;20092;-78
2023/07/13 00:42:15;;;;;;;4.35;1.67;;;;;;;31.21;32.11;100858.28;5005419;28;20327;-75
2023/07/13 00:44:58;;;;;;;4.35;1.23;;;;;;;31.12;32.54;100860.63;4992466;28;20500;-73
2023/07/13 00:47:27;;;;;;;1.83;1.30;;;;;;;30.99;33.87;100861.28;5001276;28;20483;-74
2023/07/13 00:49:56;;;;;;;3.25;1.40;;;;;;;30.90;33.73;100859.09;5001763;28;20117;-74
2023/07/13 00:52:25;;;;;;;2.83;1.35;;;;;;;30.85;32.56;100861.16;5004007;28;20120;-73
2023/07/13 00:54:56;;;;;;;6.93;1.63;;;;;;;30.80;33.38;100857.84;5003069;28;20061;-73
2023/07/13 00:57:25;;;;;;;2.67;1.30;;;;;;;30.73;33.90;100859.13;5005028;28;20057;-74
2023/07/13 00:59:57;;;;;;;2.95;1.30;;;;;;;30.61;34.28;100858.81;5004371;28;20069;-74
2023/07/13 01:02:27;;;;;;;4.60;1.40;;;;;;;30.48;34.62;100861.25;5002353;28;20478;-75
2023/07/13 01:04:55;;;;;;;4.75;1.40;;;;;;;30.36;33.64;100858.38;4999852;28;20054;-75
2023/07/13 01:07:24;;;;;;;4.05;1.50;;;;;;;30.24;33.53;100855.38;5004590;28;20049;-73
2023/07/13 01:10:08;;;;;;;4.43;1.35;;;;;;;30.17;33.68;100848.63;4997471;28;20058;-76
2023/07/13 01:12:37;;;;;;;3.25;1.50;;;;;;;30.09;33.61;100848.13;5007609;28;20049;-75
2023/07/13 01:15:08;;;;;;;5.57;1.77;;;;;;;30.04;33.21;100852.84;5016254;28;20054;-76
2023/07/13 01:17:37;;;;;;;4.13;1.33;;;;;;;29.99;33.68;100849.56;4998576;28;20108;-77
2023/07/13 01:20:08;;;;;;;4.15;1.40;;;;;;;29.94;33.92;100851.56;5006031;28;20053;-75
2023/07/13 01:22:38;;;;;;;2.47;1.35;;;;;;;29.88;33.91;100857.22;5004645;28;20042;-76
2023/07/13 01:25:08;;;;;;;2.38;1.70;;;;;;;29.83;35.06;100855.66;5008155;28;20060;-74
2023/07/13 01:27:37;;;;;;;2.22;1.50;;;;;;;29.80;35.14;100855.81;5007933;28;20516;-77
2023/07/13 01:30:06;;;;;;;4.78;1.63;;;;;;;29.79;35.47;100851.41;5009702;28;20494;-74
2023/07/13 01:32:36;;;;;;;3.88;1.30;;;;;;;29.75;34.25;100865.81;5003437;28;20499;-76
2023/07/13 01:35:05;;;;;;;2.05;1.38;;;;;;;29.73;33.95;100865.03;5021202;28;20121;-76
2023/07/13 01:37:35;;;;;;;4.00;1.25;;;;;;;29.73;36.57;100861.50;5008235;28;20050;-78
2023/07/13 01:40:08;;;;;;;4.15;1.35;;;;;;;29.72;35.25;100863.31;5014666;28;20503;-76
2023/07/13 01:42:37;;;;;;;3.20;1.60;;;;;;;29.69;35.15;100860.81;5009345;28;20099;-77
2023/07/13 01:45:06;;;;;;;2.58;1.27;;;;;;;29.65;34.46;100856.50;5005454;28;20129;-77
2023/07/13 01:47:35;;;;;;;3.50;1.40;;;;;;;29.62;35.58;100854.88;5011079;28;21170;-76
2023/07/13 01:50:07;;;;;;;2.60;1.30;;;;;;;29.56;35.34;100857.81;5011597;28;20061;-76
2023/07/13 01:52:36;;;;;;;3.20;1.50;;;;;;;29.56;34.94;100862.28;5006123;28;20555;-81
2023/07/13 01:55:07;;;;;;;1.45;1.23;;;;;;;29.59;33.71;100847.00;5007405;28;20057;-73
2023/07/13 01:57:36;;;;;;;3.47;1.30;;;;;;;29.75;34.71;100854.28;5009373;28;20042;-73
2023/07/13 02:00:06;;;;;;;3.80;1.33;;;;;;;29.81;35.27;100857.53;5008596;28;20085;-72
2023/07/13 02:02:35;;;;;;;2.10;1.25;;;;;;;29.85;35.41;100859.09;5011914;28;20046;-72
2023/07/13 02:05:03;;;;;;;1.90;1.20;;;;;;;29.86;36.03;100855.47;5004712;28;20546;-72
2023/07/13 02:07:32;;;;;;;2.22;1.27;;;;;;;29.92;36.08;100845.47;5003043;28;20053;-73
2023/07/13 02:10:00;;;;;;;3.15;1.40;;;;;;;29.96;35.93;100849.69;5005192;28;20147;-73
2023/07/13 02:12:31;;;;;;;3.95;1.40;;;;;;;29.97;35.55;100856.78;5007753;28;20050;-74
2023/07/13 02:14:59;;;;;;;5.43;1.30;;;;;;;29.97;35.97;100854.09;5005144;28;20055;-70
2023/07/13 02:17:28;;;;;;;1.80;1.58;;;;;;;29.96;35.83;100855.91;5010543;28;20538;-76
2023/07/13 02:19:57;;;;;;;2.55;1.27;;;;;;;30.01;36.51;100872.53;5002463;28;20120;-76
2023/07/13 02:22:25;;;;;;;4.93;1.52;;;;;;;29.93;35.81;100869.38;5008984;28;20105;-71
2023/07/13 02:24:56;;;;;;;2.33;1.48;;;;;;;29.79;35.23;100871.88;5011357;28;20046;-76
2023/07/13 02:27:25;;;;;;;3.20;1.10;;;;;;;29.65;36.13;100872.50;5009688;28;20046;-77
2023/07/13 02:29:55;;;;;;;3.47;1.20;;;;;;;29.56;35.96;100878.28;5006215;28;20104;-75
2023/07/13 02:32:25;;;;;;;2.50;1.20;;;;;;;29.43;36.44;100878.84;5008406;28;20042;-78
2023/07/13 02:34:56;;;;;;;5.68;1.10;;;;;;;29.35;36.54;100881.03;5005636;28;20049;-77
2023/07/13 02:37:24;;;;;;;5.07;1.35;;;;;;;29.28;37.31;100878.75;5006357;28;20042;-76
2023/07/13 02:39:54;;;;;;;4.85;1.80;;;;;;;29.19;37.46;100883.53;5007811;28;20966;-72
2023/07/13 02:42:22;;;;;;;1.88;1.30;;;;;;;29.10;37.87;100880.44;5011331;28;20054;-71
2023/07/13 02:44:51;;;;;;;2.85;1.30;;;;;;;29.03;37.99;100883.34;5009710;28;20049;-76
2023/07/13 02:47:21;;;;;;;3.75;1.60;;;;;;;28.99;37.76;100881.75;5000401;28;20093;-74
2023/07/13 02:49:50;;;;;;;4.72;1.85;;;;;;;28.92;38.28;100882.97;5003759;28;20058;-76
2023/07/13 02:52:18;;;;;;;2.53;1.50;;;;;;;28.89;38.54;100884.94;5013644;28;20056;-75
2023/07/13 02:54:47;;;;;;;4.75;1.50;;;;;;;28.82;38.34;100876.34;5011317;28;20069;-79
2023/07/13 02:57:15;;;;;;;6.00;1.20;;;;;;;28.75;38.96;100881.06;5008277;28;20062;-74
2023/07/13 02:59:45;;;;;;;3.22;1.30;;;;;;;28.70;38.60;100884.84;5007734;28;20061;-81
2023/07/13 03:02:13;;;;;;;2.40;1.30;;;;;;;28.64;39.15;100882.47;5016401;28;20046;-83
2023/07/13 03:04:43;;;;;;;3.60;1.45;;;;;;;28.59;39.35;100888.88;5014316;28;20861;-81
2023/07/13 03:07:13;;;;;;;1.73;1.33;;;;;;;28.53;39.19;100886.47;5009414;28;20727;-82
2023/07/13 03:09:42;;;;;;;2.75;1.13;;;;;;;28.53;39.72;100896.25;5014606;28;20118;-78
2023/07/13 03:12:11;;;;;;;1.55;1.23;;;;;;;28.58;40.20;100900.44;5016315;28;20422;-79
2023/07/13 03:14:40;;;;;;;3.33;1.30;;;;;;;28.62;39.54;100895.84;5014616;28;20399;-81
2023/07/13 03:17:08;;;;;;;2.25;1.40;;;;;;;28.61;39.43;100908.31;5010280;28;20400;-81
2023/07/13 03:19:37;;;;;;;2.05;1.15;;;;;;;28.55;39.57;100900.56;5019092;28;20046;-77
2023/07/13 03:22:08;;;;;;;2.67;1.30;;;;;;;28.53;40.04;100899.78;5025310;28;20054;-78
2023/07/13 03:24:39;;;;;;;3.45;1.20;;;;;;;28.51;39.78;100911.41;5031926;28;20084;-79
2023/07/13 03:27:08;;;;;;;4.07;1.38;;;;;;;28.49;39.33;100905.28;5028296;28;20046;-79
2023/07/13 03:29:37;;;;;;;3.60;1.23;;;;;;;28.43;40.11;100906.41;5025848;28;20061;-78
2023/07/13 03:32:08;;;;;;;2.05;0.98;;;;;;;28.40;39.70;100911.84;5010524;28;20084;-79
2023/07/13 03:34:37;;;;;;;2.88;1.17;;;;;;;28.35;40.03;100919.16;5018404;28;20045;-76
2023/07/13 03:37:10;;;;;;;1.77;1.13;;;;;;;28.29;40.19;100917.63;5010472;28;20054;-80
2023/07/13 03:39:39;;;;;;;1.73;1.15;;;;;;;28.22;39.98;100913.47;5009661;28;20054;-79
2023/07/13 03:42:08;;;;;;;3.30;1.10;;;;;;;28.17;39.85;100915.47;5011136;28;20613;-79
2023/07/13 03:44:37;;;;;;;1.27;1.02;;;;;;;28.13;39.88;100927.16;5004621;28;20054;-78
2023/07/13 03:47:08;;;;;;;3.55;1.00;;;;;;;28.05;39.91;100924.81;5011077;28;20228;-78
2023/07/13 03:49:37;;;;;;;3.40;1.15;;;;;;;28.02;39.36;100929.41;5015746;28;20038;-79
2023/07/13 03:52:08;;;;;;;1.38;1.00;;;;;;;27.95;40.44;100934.97;5010582;28;20049;-78
2023/07/13 03:54:41;;;;;;;4.20;0.98;;;;;;;27.85;40.51;100940.69;5005668;28;20046;-80
2023/07/13 03:57:10;;;;;;;2.47;1.13;;;;;;;27.74;40.71;100949.94;5006587;28;20092;-79
2023/07/13 03:59:39;;;;;;;1.88;0.90;;;;;;;27.66;39.68;100945.84;5006046;28;20064;-79
2023/07/13 04:02:08;;;;;;;3.08;1.25;;;;;;;27.56;40.88;100940.03;5005543;28;20057;-78
2023/07/13 04:04:39;;;;;;;2.35;0.98;;;;;;;27.46;41.93;100954.56;5007627;28;20054;-76
2023/07/13 04:07:10;;;;;;;4.30;1.08;;;;;;;27.35;40.96;100955.84;5004963;28;20074;-78
2023/07/13 04:09:39;;;;;;;2.50;1.17;;;;;;;27.28;40.34;100959.66;5006886;28;20057;-76
2023/07/13 04:12:08;;;;;;;4.43;1.10;;;;;;;27.18;41.94;100955.56;5004365;28;20500;-80
2023/07/13 04:14:38;;;;;;;2.55;1.45;;;;;;;27.06;42.36;100958.69;5011129;28;20050;-84
2023/07/13 04:17:07;;;;;;;1.98;0.98;;;;;;;26.95;40.84;100956.41;5007215;28;20534;-76
2023/07/13 04:19:36;;;;;;;1.77;0.80;;;;;;;26.81;40.18;100964.00;5005006;28;20077;-77
2023/07/13 04:22:04;;;;;;;1.23;1.00;;;;;;;26.69;40.44;100962.63;5005257;28;20054;-76
2023/07/13 04:24:35;;;;;;;3.47;1.00;;;;;;;26.58;41.09;100970.94;5010676;28;20048;-76
2023/07/13 04:27:04;;;;;;;2.90;1.15;;;;;;;26.51;41.68;100975.56;5004497;28;20054;-76
2023/07/13 04:29:32;;;;;;;1.75;0.98;;;;;;;26.42;40.84;100986.47;5009971;28;20530;-78
2023/07/13 04:32:01;;;;;;;2.25;1.13;;;;;;;26.33;41.45;100992.09;5002815;28;20104;-74
2023/07/13 04:34:29;;;;;;;2.17;0.80;;;;;;;26.22;41.60;100989.75;5007096;28;20141;-77
2023/07/13 04:36:58;;;;;;;2.88;0.98;;;;;;;26.13;41.30;100996.22;5007676;28;20053;-77
2023/07/13 04:39:27;;;;;;;2.40;1.10;;;;;;;26.07;41.90;100996.44;5002833;28;20046;-79
2023/07/13 04:41:57;;;;;;;2.70;1.00;;;;;;;26.03;42.34;100999.22;5008153;28;20042;-76
2023/07/13 04:44:25;;;;;;;1.17;0.88;;;;;;;25.95;42.58;101009.19;5012188;28;20061;-80
2023/07/13 04:46:54;;;;;;;3.15;0.88;;;;;;;25.86;42.35;101010.28;5010081;28;20049;-77
2023/07/13 04:49:23;;;;;;;3.78;1.10;;;;;;;25.78;42.31;101018.47;5010955;28;20053;-76
2023/07/13 04:51:51;;;;;;;2.42;0.85;;;;;;;25.71;42.40;101025.75;5005776;28;20076;-75
2023/07/13 04:54:21;;;;;;;1.73;1.10;;;;;;;25.62;42.23;101031.31;5007643;28;20038;-78
2023/07/13 04:56:49;;;;;;;2.38;1.00;;;;;;;25.52;41.93;101034.25;5010513;28;20043;-80
2023/07/13 04:59:20;;;;;;;2.42;0.90;;;;;;;25.38;42.21;101035.53;5010468;28;20171;-77
2023/07/13 05:01:48;;;;;;;1.10;0.98;;;;;;;25.28;42.72;101037.53;5007417;28;20050;-77
2023/07/13 05:04:17;;;;;;;1.30;0.98;;;;;;;25.21;42.80;101043.06;5009136;28;20058;-77
2023/07/13 05:06:45;;;;;;;1.25;0.90;;;;;;;25.15;43.52;101043.16;5003023;28;20531;-75
2023/07/13 05:09:14;;;;;;;3.15;0.90;;;;;;;25.08;43.11;101061.00;5006809;28;20046;-74
2023/07/13 05:11:42;;;;;;;1.30;1.00;;;;;;;24.96;43.05;101058.69;5007750;28;20056;-76
2023/07/13 05:14:11;;;;;;;2.17;0.93;;;;;;;24.86;43.39;101060.69;5001859;28;20053;-77
2023/07/13 05:16:41;;;;;;;2.83;1.15;;;;;;;24.76;43.16;101062.69;5010402;28;20049;-79
2023/07/13 05:19:10;;;;;;;2.10;0.95;;;;;;;24.62;43.09;101073.63;5006525;28;20054;-73
2023/07/13 05:21:39;;;;;;;1.10;0.80;;;;;;;24.54;44.66;101077.34;5008292;28;20479;-75
2023/07/13 05:24:08;;;;;;;2.25;0.90;;;;;;;24.45;44.51;101081.03;5009516;28;20137;-72
2023/07/13 05:26:36;;;;;;;1.90;0.93;;;;;;;24.42;45.25;101091.69;5008672;28;20050;-72
2023/07/13 05:29:05;;;;;;;1.95;0.90;;;;;;;24.36;44.24;101089.19;5013346;28;20114;-78
2023/07/13 05:31:34;;;;;;;1.48;0.85;;;;;;;24.28;44.18;101094.66;5007389;28;20054;-72
2023/07/13 05:34:05;;;;;;;1.95;0.93;;;;;;;24.16;44.48;101094.91;5004569;28;20073;-74
2023/07/13 05:36:33;;;;;;;1.88;1.00;;;;;;;24.08;44.38;101097.72;5004549;28;20148;-73
2023/07/13 05:39:02;;;;;;;2.00;1.00;;;;;;;24.01;44.70;101096.09;5007475;28;20052;-71
2023/07/13 05:41:30;;;;;;;1.55;0.82;;;;;;;23.96;45.21;101103.22;5007786;28;20062;-71
2023/07/13 05:44:01;;;;;;;1.00;0.80;;;;;;;23.88;45.08;101105.19;5009655;28;20041;-74
2023/07/13 05:46:30;;;;;;;1.45;0.80;;;;;;;23.81;44.95;101100.00;5003870;28;20143;-74
2023/07/13 05:48:59;;;;;;;5.05;1.00;;;;;;;23.79;45.30;101106.22;5002462;28;20052;-74
2023/07/13 05:51:36;;;;;;;2.95;1.10;;;;;;;23.75;45.02;101108.03;5002315;28;20069;-75
2023/07/13 05:54:11;;;;;;;1.50;1.00;;;;;;;23.68;45.25;101101.13;5008689;28;20053;-74
2023/07/13 05:56:40;;;;;;;1.55;0.90;;;;;;;23.58;44.82;101111.00;5015797;28;20046;-75
2023/07/13 05:59:08;;;;;;;1.63;0.82;;;;;;;23.51;45.87;101117.28;5000476;28;20057;-75
2023/07/13 06:01:38;;;;;;;2.65;0.90;;;;;;;23.45;45.53;101117.38;5010589;28;20108;-75
2023/07/13 06:04:07;;;;;;;2.33;0.82;;;;;;;23.32;45.50;101111.47;5007945;28;20144;-75
2023/07/13 06:06:37;;;;;;;2.17;0.80;;;;;;;23.18;46.35;101119.63;5007883;28;20046;-75
2023/07/13 06:09:05;;;;;;;1.58;0.70;;;;;;;23.11;46.12;101128.56;5007828;28;20049;-77
2023/07/13 06:11:34;;;;;;;1.20;0.90;;;;;;;23.09;46.63;101134.72;5010562;28;20543;-76
2023/07/13 06:14:03;;;;;;;2.50;1.00;;;;;;;23.03;46.64;101132.22;5006621;28;20059;-78
2023/07/13 06:16:32;;;;;;;2.65;0.80;;;;;;;23.01;46.91;101140.16;5001307;28;20050;-74
2023/07/13 06:19:00;;;;;;;1.20;1.00;;;;;;;22.95;47.74;101140.19;5005983;28;20057;-74
2023/07/13 06:21:29;;;;;;;1.30;1.15;;;;;;;22.91;47.42;101138.53;5015063;28;20045;-75
2023/07/13 06:23:59;;;;;;;0.98;0.63;;;;;;;22.80;47.28;101144.81;5004981;28;20996;-73
2023/07/13 06:26:28;;;;;;;1.38;0.90;;;;;;;22.77;48.31;101147.53;5003390;28;20091;-76
2023/07/13 06:28:57;;;;;;;1.52;0.77;;;;;;;22.74;47.19;101144.91;5010054;28;20661;-73
2023/07/13 06:31:25;;;;;;;2.00;0.80;;;;;;;22.71;47.72;101142.31;5003507;28;20054;-73
2023/07/13 06:33:54;;;;;;;1.17;0.80;;;;;;;22.70;47.03;101137.06;5008008;28;20058;-75
2023/07/13 06:36:22;;;;;;;0.82;0.70;;;;;;;22.66;47.09;101140.66;4995851;28;20050;-72
2023/07/13 06:38:53;;;;;;;4.35;1.00;;;;;;;22.64;47.20;101142.44;5004571;28;20049;-75
2023/07/13 06:41:25;;;;;;;1.70;0.80;;;;;;;22.56;47.65;101139.91;5010189;28;20086;-74
2023/07/13 06:43:54;;;;;;;1.15;0.90;;;;;;;22.48;47.89;101142.66;5006343;28;20038;-76
2023/07/13 06:46:23;;;;;;;2.38;1.08;;;;;;;22.42;48.38;101144.50;5007545;28;20133;-76
2023/07/13 06:48:52;;;;;;;1.40;0.82;;;;;;;22.32;49.04;101144.63;5008697;28;20690;-73
2023/07/13 06:51:21;;;;;;;1.52;0.80;;;;;;;22.22;48.51;101147.38;5006905;28;20415;-75
2023/07/13 06:53:49;;;;;;;1.63;0.82;;;;;;;22.15;48.44;101151.81;5004235;28;20050;-74
2023/07/13 06:56:18;;;;;;;5.75;1.05;;;;;;;22.09;48.04;101154.53;5006648;28;20141;-75
2023/07/13 06:58:48;;;;;;;1.00;0.77;;;;;;;22.04;48.42;101156.38;5005750;28;20050;-76
2023/07/13 07:01:17;;;;;;;1.27;0.85;;;;;;;21.95;48.62;101150.31;5010136;28;20049;-73
2023/07/13 07:03:45;;;;;;;1.55;0.80;;;;;;;21.87;49.60;101152.13;5006031;28;20050;-73
2023/07/13 07:06:17;;;;;;;2.15;1.00;;;;;;;21.83;49.56;101153.09;5011222;28;20519;-77
2023/07/13 07:08:46;;;;;;;;;;;;;;;21.78;49.31;101149.59;5007167;28;20104;-73
2023/07/13 07:11:16;;;;;;;1.80;0.88;;;;;;;21.73;49.64;101151.41;5002209;28;19925;-78
2023/07/13 07:13:49;;;;;;;1.90;0.90;;;;;;;21.67;48.90;101143.56;5005391;28;20564;-74
2023/07/13 07:16:18;;;;;;;1.30;0.75;;;;;;;21.60;49.72;101145.41;5010635;28;20064;-74
2023/07/13 07:18:47;;;;;;;1.38;0.90;;;;;;;21.49;49.50;101150.78;5003978;28;20057;-75
2023/07/13 07:21:16;;;;;;;3.47;1.10;;;;;;;21.45;51.44;101156.09;5004567;28;20050;-73
2023/07/13 07:23:45;;;;;;;1.98;0.90;;;;;;;21.38;51.01;101149.97;5003895;28;20049;-74
2023/07/13 07:26:14;;;;;;;1.08;0.68;;;;;;;21.36;50.35;101141.22;5006423;28;20522;-75
2023/07/13 07:28:42;;;;;;;0.80;0.60;;;;;;;21.33;50.82;101150.00;5003039;28;20492;-73
2023/07/13 07:31:13;;;;;;;1.85;0.80;;;;;;;21.26;50.22;101145.69;5006317;28;20053;-76
2023/07/13 07:33:41;;;;;;;0.80;0.60;;;;;;;21.19;50.06;101146.63;5006226;28;20061;-74
2023/07/13 07:36:11;;;;;;;0.95;0.80;;;;;;;21.18;49.76;101155.38;4996286;28;20614;-75
2023/07/13 07:38:40;;;;;;;1.23;0.68;;;;;;;21.17;50.32;101150.16;5004844;28;20042;-76
2023/07/13 07:41:08;;;;;;;0.98;0.60;;;;;;;21.11;49.52;101146.66;5004916;28;20065;-73
2023/07/13 07:43:37;;;;;;;0.57;0.50;;;;;;;21.12;49.49;101151.06;5002748;28;20053;-75
2023/07/13 07:46:06;;;;;;;0.95;0.70;;;;;;;21.06;49.51;101152.88;5006082;28;21273;-74
2023/07/13 07:48:36;;;;;;;2.20;0.70;;;;;;;21.00;49.60;101153.75;5007126;28;20057;-74
2023/07/13 07:51:05;;;;;;;1.52;0.63;;;;;;;20.97;52.27;101159.06;5004586;28;20049;-73
2023/07/13 07:53:33;;;;;;;0.90;0.43;;;;;;;20.87;53.23;101146.88;5008046;28;20062;-74
2023/07/13 07:56:02;;;;;;;0.85;0.70;;;;;;;20.86;52.41;101148.59;5007708;28;20049;-74
2023/07/13 07:58:30;;;;;;;0.80;0.50;;;;;;;20.77;53.02;101142.53;5004261;28;20061;-73
2023/07/13 08:01:07;;;;;;;0.93;0.50;;;;;;;20.66;51.80;101143.50;5005082;28;20113;-74
2023/07/13 08:03:38;;;;;;;3.17;0.80;;;;;;;20.60;51.82;101147.91;5002355;28;20054;-75
2023/07/13 08:06:06;;;;;;;1.20;0.70;;;;;;;20.58;51.93;101149.66;5006946;28;20050;-75
2023/07/13 08:08:36;;;;;;;1.08;0.60;;;;;;;20.51;51.72;101152.28;5008618;28;20037;-76
2023/07/13 08:11:05;;;;;;;2.22;0.80;;;;;;;20.47;51.77;101147.91;5005461;28;20088;-75
2023/07/13 08:13:34;;;;;;;0.73;0.52;;;;;;;20.44;51.86;101141.81;5010261;28;20621;-77
2023/07/13 08:16:03;;;;;;;0.98;0.70;;;;;;;20.44;52.01;101149.72;5004097;28;20048;-75
2023/07/13 08:18:31;;;;;;;0.82;0.57;;;;;;;20.45;51.97;101148.81;5005365;28;20100;-76
2023/07/13 08:21:05;;;;;;;1.08;0.70;;;;;;;20.43;52.20;101140.97;5004213;28;20081;-74
2023/07/13 08:23:34;;;;;;;1.92;0.52;;;;;;;20.40;52.32;101158.47;5001933;28;20038;-76
2023/07/13 08:26:04;;;;;;;1.25;0.60;;;;;;;20.38;51.87;101157.63;5006799;28;20057;-76
2023/07/13 08:28:33;;;;;;;1.77;0.63;;;;;;;20.36;51.56;101159.38;5005466;28;20612;-75
2023/07/13 08:31:03;;;;;;;0.80;0.40;;;;;;;20.29;52.28;101164.69;5001362;28;20849;-75
2023/07/13 08:33:32;;;;;;;1.52;0.85;;;;;;;20.22;52.35;101170.81;5004037;28;20864;-76
2023/07/13 08:36:02;;;;;;;0.73;0.57;;;;;;;20.20;52.65;101167.34;5008465;28;20519;-77
2023/07/13 08:38:31;;;;;;;1.38;0.77;;;;;;;20.21;53.29;101182.22;4997091;28;20053;-74
2023/07/13 08:41:00;;;;;;;1.25;0.70;;;;;;;20.18;53.30;101176.06;5003440;28;20050;-76
2023/07/13 08:43:32;;;;;;;2.97;0.60;;;;;;;20.12;53.79;101176.97;5004842;28;20492;-73
2023/07/13 08:46:08;;;;;;;1.33;0.60;;;;;;;20.04;55.47;101179.66;5005062;28;20053;-75
2023/07/13 08:48:43;;;;;;;0.98;0.70;;;;;;;20.02;55.53;101180.50;5010077;28;20111;-74
2023/07/13 08:51:36;;;;;;;1.80;0.77;;;;;;;19.95;55.57;101186.66;5011969;28;20065;-75
2023/07/13 08:54:12;;;;;;;0.90;0.60;;;;;;;19.92;56.87;101189.28;5010256;28;20085;-75
2023/07/13 08:56:41;;;;;;;3.42;0.90;;;;;;;19.90;56.42;101191.91;5008074;28;20479;-75
2023/07/13 08:59:16;;;;;;;1.80;0.80;;;;;;;19.90;56.08;101188.41;5020367;28;20849;-75
2023/07/13 09:02:10;;;;;;;1.75;0.70;;;;;;;19.86;54.84;101190.19;5029707;28;20046;-76
2023/07/13 09:04:43;;;;;;;0.63;0.57;;;;;;;19.84;54.72;101192.81;5020231;28;20044;-75
2023/07/13 09:07:28;;;;;;;0.80;0.80;;;;;;;19.79;54.89;101194.59;5030415;28;20260;-75
2023/07/13 09:10:12;;;;;;;0.85;0.70;;;;;;;19.74;55.23;101193.69;5010809;28;20636;-73
2023/07/13 09:12:53;;;;;;;0.93;0.63;;;;;;;19.71;55.13;101198.97;5005418;28;20119;-75
2023/07/13 09:15:30;;;;;;;1.38;0.80;;;;;;;19.66;55.52;101203.31;5002945;28;20061;-73
2023/07/13 09:18:05;;;;;;;1.45;0.43;;;;;;;19.66;55.55;101205.94;5004222;28;20558;-74
2023/07/13 09:20:44;;;;;;;0.63;0.43;;;;;;;19.65;55.73;101206.78;5004077;28;20050;-73
2023/07/13 09:23:17;;;;;;;1.35;0.70;;;;;;;19.61;56.14;101210.31;4990001;28;20050;-75
2023/07/13 09:25:50;;;;;;;0.80;0.40;;;;;;;19.56;57.81;101212.03;5005928;28;20050;-75
2023/07/13 09:28:22;;;;;;;1.95;0.60;;;;;;;19.53;57.72;101218.19;5012671;28;20112;-75
2023/07/13 09:30:57;;;;;;;0.90;0.60;;;;;;;19.52;57.36;101220.81;5003973;28;20050;-74
2023/07/13 09:33:29;;;;;;;1.80;0.50;;;;;;;19.51;57.55;101219.06;5008775;28;20623;-75
2023/07/13 09:35:58;;;;;;;0.93;0.60;;;;;;;19.50;57.64;101219.94;5002941;28;20137;-75
2023/07/13 09:38:31;;;;;;;1.23;0.60;;;;;;;19.46;57.69;101212.06;5004823;28;20046;-74
2023/07/13 09:41:15;;;;;;;0.95;0.70;;;;;;;19.44;57.31;101207.69;5008862;28;20063;-73
2023/07/13 09:44:19;;;;;;;4.53;0.77;;;;;;;19.38;57.11;101203.31;5006391;28;20052;-74
2023/07/13 09:46:53;;;;;;;0.82;0.60;;;;;;;19.33;57.53;101210.28;4998564;28;20054;-75
2023/07/13 09:49:26;;;;;;;1.10;0.63;;;;;;;19.30;57.56;101206.81;5006155;28;20117;-74
2023/07/13 09:52:01;;;;;;;2.65;0.60;;;;;;;19.24;57.74;101215.53;5007104;28;20058;-73
2023/07/13 09:54:34;;;;;;;1.48;0.73;;;;;;;19.21;58.06;101220.78;5010900;28;20049;-73
2023/07/13 09:57:05;;;;;;;2.30;0.52;;;;;;;19.17;58.33;101212.06;5010222;28;20120;-74
2023/07/13 09:59:36;;;;;;;1.45;0.77;;;;;;;19.13;58.61;101218.16;5009441;28;20042;-73
2023/07/13 10:02:25;;;;;;;1.27;0.68;;;;;;;19.10;58.04;101218.13;5005893;28;20128;-73
2023/07/13 10:04:59;;;;;;;1.27;0.52;;;;;;;19.05;59.38;101214.63;5008689;28;20047;-75
2023/07/13 10:07:28;;;;;;;2.30;0.50;;;;;;;18.99;59.59;101212.88;5008108;28;20148;-75
2023/07/13 10:10:00;;;;;;;1.23;0.80;;;;;;;18.96;60.02;101215.50;5003866;28;20058;-73
2023/07/13 10:12:31;;;;;;;1.35;0.80;;;;;;;18.89;61.23;101212.84;5010701;28;20050;-75
2023/07/13 10:15:04;;;;;;;0.70;0.43;;;;;;;18.83;61.85;101211.97;5006659;28;20491;-74
2023/07/13 10:17:34;;;;;;;1.17;0.85;;;;;;;18.78;62.08;101212.81;5007140;28;20050;-72
2023/07/13 10:20:04;;;;;;;0.93;0.73;;;;;;;18.73;62.62;101218.00;5011576;28;20047;-75
2023/07/13 10:22:45;;;;;;;1.35;0.77;;;;;;;18.69;61.80;101210.13;5010699;28;20034;-75
2023/07/13 10:25:25;;;;;;;0.75;0.60;;;;;;;18.67;61.34;101211.88;5004567;28;20053;-74
2023/07/13 10:27:57;;;;;;;1.85;0.60;;;;;;;18.61;60.98;101211.00;5007989;28;20749;-74
2023/07/13 10:30:30;;;;;;;1.42;0.80;;;;;;;18.52;61.47;101203.09;5001961;28;20141;-74
2023/07/13 10:33:01;;;;;;;0.95;0.47;;;;;;;18.46;62.04;101203.06;5005150;28;20070;-74
2023/07/13 10:35:32;;;;;;;0.80;0.47;;;;;;;18.43;61.83;101203.06;5008561;28;20696;-73
2023/07/13 10:38:06;;;;;;;4.78;0.80;;;;;;;18.41;62.02;101199.53;5007022;28;20157;-73
2023/07/13 10:40:41;;;;;;;1.17;0.60;;;;;;;18.39;62.19;101209.13;5011215;28;20107;-74
2023/07/13 10:43:18;;;;;;;0.80;0.60;;;;;;;18.37;61.74;101208.25;5008724;28;20100;-75
2023/07/13 10:45:50;;;;;;;1.52;0.50;;;;;;;18.36;62.06;101203.91;5007071;28;20553;-74
2023/07/13 10:48:19;;;;;;;0.85;0.60;;;;;;;18.33;62.06;101201.28;5006935;28;20052;-74
2023/07/13 10:50:50;;;;;;;1.23;0.65;;;;;;;18.30;62.67;101203.84;5005253;28;20064;-74
2023/07/13 10:53:29;;;;;;;0.73;0.50;;;;;;;18.26;62.86;101204.75;5006141;28;20053;-73
2023/07/13 10:56:05;;;;;;;0.68;0.65;;;;;;;18.24;63.21;101206.47;5008448;28;20716;-72
2023/07/13 10:58:38;;;;;;;1.45;0.68;;;;;;;18.23;63.26;101204.69;5005628;28;20050;-75
2023/07/13 11:01:12;;;;;;;1.05;0.90;;;;;;;18.20;63.50;101214.28;5002899;28;20049;-74
2023/07/13 11:03:51;;;;;;;1.48;0.77;;;;;;;18.16;64.18;101209.94;5006559;28;20050;-74
2023/07/13 11:06:35;;;;;;;1.17;0.77;;;;;;;18.14;64.57;101209.03;5009308;28;20054;-75
2023/07/13 11:09:21;;;;;;;2.00;0.70;;;;;;;18.12;64.71;101215.09;5007187;28;20054;-73
2023/07/13 11:11:51;;;;;;;1.00;0.60;;;;;;;18.09;65.09;101215.97;5004198;28;20065;-73
2023/07/13 11:14:31;;;;;;;1.05;0.80;;;;;;;18.05;65.26;101209.00;5005652;28;20058;-74
2023/07/13 11:16:59;;;;;;;0.85;0.65;;;;;;;17.98;65.29;101205.44;5006685;28;20038;-73
2023/07/13 11:19:42;;;;;;;2.15;0.60;;;;;;;17.93;65.79;101209.75;5007061;28;20061;-73
2023/07/13 11:22:22;;;;;;;0.88;0.60;;;;;;;17.92;65.74;101205.41;5001922;28;20130;-73
2023/07/13 11:24:53;;;;;;;2.22;0.70;;;;;;;17.89;65.89;101204.50;5008441;28;20136;-72
2023/07/13 11:27:40;;;;;;;2.35;1.23;;;;;;;17.86;65.43;101204.47;5011603;28;20625;-74
2023/07/13 11:30:34;;;;;;;2.13;0.60;;;;;;;17.85;65.59;101203.63;5010260;28;20069;-74
2023/07/13 11:33:13;;;;;;;0.60;0.60;;;;;;;17.83;66.10;101210.59;5004494;28;20050;-74
2023/07/13 11:35:51;;;;;;;1.00;0.50;;;;;;;17.82;66.26;101202.72;5005558;28;20117;-75
2023/07/13 11:38:37;;;;;;;1.48;0.90;;;;;;;17.78;66.45;101202.66;5002210;28;20053;-75
2023/07/13 11:41:07;;;;;;;0.60;0.60;;;;;;;17.76;65.86;101209.63;5003415;28;20046;-74
2023/07/13 11:43:38;;;;;;;1.58;0.82;;;;;;;17.70;65.87;101204.34;5003082;28;20050;-73